Terminal Aerodrome Forecast
Issued by NWS

Current Version | Previous Version | Text Only | Print | Product List | Glossary On
Versions: 1 2 3 4 5 6 7 8 9 10 11 12 13 14 15 16 17 18 19 20 21 22 23 24 25 26 27 28
210
FTUS43 KDLH 252033 AAB
TAFHYR
TAF AMD
KHYR 252033Z 2521/2618 08010KT P6SM VCSH OVC050
      TEMPO 2521/2524 5SM -TSRA OVC015CB
     FM260000 11008KT 5SM -RA BR OVC015
     FM260500 12010KT 5SM BR VCSH OVC020
     FM261200 17010KT P6SM BKN040=

USA.gov is the U.S. government's official web portal to all federal, state and local government web resources and services.